Time;durP1;ratioP1;P1;durP2;ratioP2;P2;SDS_P1;SDS_P2;PMS_P1;PMS_P2;Temp;Humidity;BMP_temperature;BMP_pressure;BME280_temperature;BME280_humidity;BME280_pressure;Samples;Min_cycle;Max_cycle;Signal;HPM_P1;HPM_P2
2023/09/06 00:00:45;;;;;;;1.80;1.60;;;;;;;17.90;62.31;99346.00;4997720;28;41857;-79
2023/09/06 00:03:14;;;;;;;2.57;1.53;;;;;;;17.86;62.74;99339.19;5013875;28;41804;-80
2023/09/06 00:05:42;;;;;;;1.30;1.20;;;;;;;17.80;62.42;99335.19;5015929;28;43015;-81
2023/09/06 00:08:14;;;;;;;2.43;1.30;;;;;;;17.79;62.51;99330.84;5016321;28;40009;-80
2023/09/06 00:10:43;;;;;;;1.87;0.93;;;;;;;17.75;62.82;99326.69;5014375;28;41719;-82
2023/09/06 00:13:13;;;;;;;1.57;1.47;;;;;;;17.74;63.28;99318.78;5016258;28;42811;-78
2023/09/06 00:15:41;;;;;;;1.93;1.30;;;;;;;17.68;63.56;99313.97;5016213;28;42953;-84
2023/09/06 00:18:09;;;;;;;5.17;1.60;;;;;;;17.67;63.91;99323.84;5015811;28;40391;-80
2023/09/06 00:20:38;;;;;;;1.63;1.30;;;;;;;17.66;64.52;99315.91;5033509;28;41676;-81
2023/09/06 00:23:08;;;;;;;1.70;1.30;;;;;;;17.57;64.82;99306.78;5015801;28;41694;-78
2023/09/06 00:25:38;;;;;;;1.07;1.07;;;;;;;17.58;64.50;99314.69;5013680;28;43435;-82
2023/09/06 00:28:07;;;;;;;1.50;1.30;;;;;;;17.47;64.26;99317.41;5016104;28;40553;-81
2023/09/06 00:30:35;;;;;;;1.70;1.50;;;;;;;17.52;64.43;99339.31;5015158;28;42208;-78
2023/09/06 00:33:06;;;;;;;2.40;1.73;;;;;;;17.48;64.43;99328.97;4999158;28;41404;-79
2023/09/06 00:35:34;;;;;;;3.00;2.00;;;;;;;17.43;64.20;99336.56;4998856;28;42382;-79
2023/09/06 00:38:05;;;;;;;2.27;1.70;;;;;;;17.38;64.43;99334.25;5016555;28;40059;-82
2023/09/06 00:40:36;;;;;;;1.73;1.63;;;;;;;17.33;64.82;99331.09;4999653;28;40863;-80
2023/09/06 00:43:06;;;;;;;1.43;1.33;;;;;;;17.29;64.67;99329.66;4999968;28;41397;-78
2023/09/06 00:45:39;;;;;;;1.90;1.30;;;;;;;17.25;64.41;99328.22;4999839;28;41026;-78
2023/09/06 00:48:08;;;;;;;2.73;1.50;;;;;;;17.21;64.87;99326.75;5000303;28;40889;-81
2023/09/06 00:50:37;;;;;;;1.57;1.40;;;;;;;17.16;64.59;99319.13;5016451;28;42632;-79
2023/09/06 00:53:06;;;;;;;1.00;1.00;;;;;;;17.13;64.69;99324.72;5000295;28;41913;-81
2023/09/06 00:55:37;;;;;;;1.40;1.30;;;;;;;17.11;64.99;99331.16;5000015;28;42265;-80
2023/09/06 00:58:06;;;;;;;1.90;1.60;;;;;;;17.08;65.04;99323.38;5017104;28;40617;-77
2023/09/06 01:00:35;;;;;;;2.13;1.80;;;;;;;17.04;65.14;99325.47;5016208;28;42763;-79
2023/09/06 01:03:05;;;;;;;1.30;1.13;;;;;;;17.02;64.90;99337.28;5000064;28;41531;-77
2023/09/06 01:05:41;;;;;;;1.73;1.63;;;;;;;16.92;65.14;99326.47;4999578;28;41481;-81
2023/09/06 01:08:12;;;;;;;1.60;1.50;;;;;;;16.69;65.29;99298.88;4998973;28;38699;-76
2023/09/06 01:10:40;;;;;;;1.73;1.30;;;;;;;16.82;65.43;99318.31;5015289;28;41670;-81
2023/09/06 01:13:09;;;;;;;1.77;1.50;;;;;;;16.88;65.39;99331.22;5015346;28;42486;-80
2023/09/06 01:15:39;;;;;;;1.70;1.50;;;;;;;16.85;65.87;99323.44;4998372;28;42442;-82
2023/09/06 01:18:08;;;;;;;2.27;1.77;;;;;;;16.84;65.88;99328.91;4998870;28;40211;-82
2023/09/06 01:20:42;;;;;;;1.27;1.17;;;;;;;16.82;66.33;99326.34;5015261;28;42688;-82
2023/09/06 01:23:31;;;;;;;1.57;1.47;;;;;;;16.79;66.17;99331.97;4998656;28;41749;-80
2023/09/06 01:25:59;;;;;;;1.83;1.50;;;;;;;16.79;66.57;99331.13;5030766;28;42987;-81
2023/09/06 01:28:27;;;;;;;1.30;1.17;;;;;;;16.74;66.14;99318.09;5014720;28;39862;-81
2023/09/06 01:30:55;;;;;;;1.90;1.37;;;;;;;16.75;66.59;99327.81;4998032;28;41985;-79
2023/09/06 01:33:23;;;;;;;1.67;1.57;;;;;;;16.73;66.93;99319.06;4998082;28;41718;-81
2023/09/06 01:35:51;;;;;;;1.70;1.60;;;;;;;16.64;66.69;99308.28;4997802;28;42496;-79
2023/09/06 01:38:19;;;;;;;3.00;1.50;;;;;;;16.70;67.23;99319.31;5025605;28;40740;-81
2023/09/06 01:40:48;;;;;;;2.97;2.00;;;;;;;16.65;67.08;99313.50;5015171;28;41809;-82
2023/09/06 01:43:15;;;;;;;1.93;1.73;;;;;;;16.67;66.82;99322.25;4999194;28;42771;-81
2023/09/06 01:45:45;;;;;;;1.90;1.50;;;;;;;16.54;66.90;99294.75;5015585;28;42373;-81
2023/09/06 01:48:13;;;;;;;2.33;1.73;;;;;;;16.61;67.08;99309.31;4998868;28;41479;-81
2023/09/06 01:50:41;;;;;;;1.47;1.37;;;;;;;16.58;67.33;99312.25;4998956;28;41836;-82
2023/09/06 01:53:08;;;;;;;3.10;1.73;;;;;;;16.54;67.08;99310.81;5015249;28;41506;-79
2023/09/06 01:55:36;;;;;;;1.63;1.50;;;;;;;16.51;67.28;99311.88;5032941;28;43208;-79
2023/09/06 01:58:05;;;;;;;2.03;1.73;;;;;;;16.44;67.77;99304.50;4999162;28;41130;-81
2023/09/06 02:00:35;;;;;;;2.00;1.77;;;;;;;16.45;67.49;99306.16;4998720;28;40875;-81
2023/09/06 02:03:03;;;;;;;1.90;1.70;;;;;;;16.43;68.08;99308.13;5015461;28;42834;-80
2023/09/06 02:05:31;;;;;;;1.70;1.60;;;;;;;16.40;68.93;99298.53;4998351;28;41269;-80
2023/09/06 02:08:00;;;;;;;2.43;1.83;;;;;;;16.33;68.24;99291.94;4996763;28;40263;-78
2023/09/06 02:10:28;;;;;;;1.67;1.57;;;;;;;16.37;68.51;99303.25;4997559;28;40092;-79
2023/09/06 02:12:55;;;;;;;1.60;1.50;;;;;;;16.34;68.42;99303.50;5014160;28;41625;-78
2023/09/06 02:15:24;;;;;;;1.77;1.50;;;;;;;16.31;68.66;99303.75;5013786;28;42358;-79
2023/09/06 02:17:52;;;;;;;2.33;2.00;;;;;;;16.28;68.82;99299.50;4997569;28;40036;-77
2023/09/06 02:20:20;;;;;;;2.37;1.87;;;;;;;16.26;68.92;99295.25;5013924;28;41972;-78
2023/09/06 02:22:51;;;;;;;2.43;2.23;;;;;;;16.17;69.59;99280.78;5013811;28;42997;-80
2023/09/06 02:25:23;;;;;;;2.67;2.23;;;;;;;15.93;69.74;99240.81;4997585;28;40848;-77
2023/09/06 02:27:50;;;;;;;1.60;1.50;;;;;;;16.19;69.42;99289.53;4997016;28;40009;-78
2023/09/06 02:30:21;;;;;;;2.30;1.80;;;;;;;16.16;69.27;99292.44;4996933;28;41195;-81
2023/09/06 02:32:51;;;;;;;1.90;1.73;;;;;;;16.12;69.38;99288.31;5013318;28;41660;-81
2023/09/06 02:35:19;;;;;;;1.70;1.60;;;;;;;16.09;69.47;99294.72;5013948;28;41872;-81
2023/09/06 02:37:48;;;;;;;2.53;1.50;;;;;;;16.06;69.46;99288.78;4998310;28;39894;-80
2023/09/06 02:40:18;;;;;;;2.73;1.50;;;;;;;16.04;69.26;99296.06;5031855;28;42330;-77
2023/09/06 02:42:51;;;;;;;3.00;1.77;;;;;;;15.96;68.89;99293.13;5014750;28;42619;-76
2023/09/06 02:45:22;;;;;;;3.17;1.50;;;;;;;15.95;69.36;99302.97;5014567;28;41256;-82
2023/09/06 02:47:52;;;;;;;1.70;1.60;;;;;;;15.90;69.39;99302.50;4998063;28;39885;-79
2023/09/06 02:50:22;;;;;;;1.90;1.70;;;;;;;15.88;69.97;99304.41;4990171;28;40589;-82
2023/09/06 02:52:52;;;;;;;1.53;1.43;;;;;;;15.83;69.64;99293.22;5014662;28;42800;-84
2023/09/06 02:55:20;;;;;;;3.03;1.80;;;;;;;15.82;69.71;99301.38;4997911;28;41734;-82
2023/09/06 02:57:49;;;;;;;2.10;1.77;;;;;;;15.79;69.44;99302.47;5032225;28;40844;-79
2023/09/06 03:00:24;;;;;;;2.40;1.90;;;;;;;15.65;69.42;99284.81;4997519;28;40736;-83
2023/09/06 03:02:55;;;;;;;1.70;1.60;;;;;;;15.74;69.54;99309.97;5014141;28;41645;-80
2023/09/06 03:05:26;;;;;;;1.93;1.80;;;;;;;15.72;70.13;99309.22;4998070;28;41621;-80
2023/09/06 03:07:55;;;;;;;1.90;1.77;;;;;;;15.70;69.78;99303.19;4996001;28;39824;-80
2023/09/06 03:10:25;;;;;;;1.93;1.70;;;;;;;15.66;69.96;99299.03;4996524;28;42058;-81
2023/09/06 03:12:57;;;;;;;2.07;1.87;;;;;;;15.64;69.66;99308.97;5013447;28;43671;-83
2023/09/06 03:15:29;;;;;;;2.03;1.63;;;;;;;15.54;69.88;99297.25;5010726;28;43224;-76
2023/09/06 03:18:04;;;;;;;1.73;1.63;;;;;;;15.58;69.62;99310.28;4997119;28;39585;-77
2023/09/06 03:20:33;;;;;;;3.30;1.97;;;;;;;15.54;69.94;99311.47;4996680;28;40470;-79
2023/09/06 03:23:09;;;;;;;1.70;1.53;;;;;;;15.49;69.68;99315.44;4996608;28;43230;-78
2023/09/06 03:25:40;;;;;;;1.73;1.57;;;;;;;15.49;70.67;99320.78;4996379;28;42696;-80
2023/09/06 03:28:08;;;;;;;2.27;1.97;;;;;;;15.46;70.50;99312.03;5010174;28;41469;-79
2023/09/06 03:30:38;;;;;;;2.30;1.63;;;;;;;15.38;70.52;99309.09;4996507;28;41686;-79
2023/09/06 03:33:07;;;;;;;2.87;2.40;;;;;;;15.44;70.63;99319.31;4996422;28;41719;-80
2023/09/06 03:35:35;;;;;;;1.93;1.73;;;;;;;15.42;70.63;99315.91;5012772;28;42609;-79
2023/09/06 03:38:03;;;;;;;2.37;2.17;;;;;;;15.39;70.37;99326.81;5013823;28;40806;-80
2023/09/06 03:40:37;;;;;;;1.83;1.70;;;;;;;15.36;70.17;99324.34;5017101;28;42527;-83
2023/09/06 03:43:09;;;;;;;2.13;1.93;;;;;;;15.32;70.29;99327.38;5001157;28;41792;-83
2023/09/06 03:45:37;;;;;;;2.13;1.73;;;;;;;15.28;70.08;99329.44;5001126;28;41215;-78
2023/09/06 03:48:07;;;;;;;2.50;1.70;;;;;;;15.16;70.17;99314.31;5035306;28;40564;-81
2023/09/06 03:50:36;;;;;;;2.40;1.67;;;;;;;15.22;70.31;99340.53;5000394;28;40631;-79
2023/09/06 03:53:04;;;;;;;2.17;1.90;;;;;;;15.19;70.27;99330.13;5000822;28;41716;-79
2023/09/06 03:55:34;;;;;;;2.13;1.77;;;;;;;15.08;70.34;99322.88;5000648;28;41077;-82
2023/09/06 03:58:07;;;;;;;1.83;1.73;;;;;;;15.15;70.44;99333.97;5000851;28;40050;-80
2023/09/06 04:00:39;;;;;;;2.30;2.10;;;;;;;15.12;70.56;99328.84;5000155;28;40349;-79
2023/09/06 04:03:27;;;;;;;2.10;1.83;;;;;;;15.07;70.30;99341.69;5016173;28;42760;-81
2023/09/06 04:05:57;;;;;;;2.17;1.80;;;;;;;14.92;70.21;99318.78;5015971;28;43386;-82
2023/09/06 04:08:29;;;;;;;2.40;2.03;;;;;;;15.00;70.27;99345.75;4998699;28;39936;-80
2023/09/06 04:10:58;;;;;;;2.43;1.90;;;;;;;14.93;70.19;99329.34;4999493;28;40994;-79
2023/09/06 04:13:25;;;;;;;1.97;1.87;;;;;;;14.95;70.57;99332.75;4999110;28;42022;-83
2023/09/06 04:15:53;;;;;;;2.17;1.90;;;;;;;14.91;70.76;99327.75;4999205;28;42690;-80
2023/09/06 04:18:21;;;;;;;4.53;2.53;;;;;;;14.89;70.91;99335.00;4999474;28;40126;-78
2023/09/06 04:20:49;;;;;;;1.93;1.73;;;;;;;14.86;70.79;99335.22;4999204;28;40692;-80
2023/09/06 04:23:21;;;;;;;2.23;1.43;;;;;;;14.84;70.52;99339.81;4999619;28;41894;-81
2023/09/06 04:25:55;;;;;;;2.10;1.70;;;;;;;14.53;70.85;99294.03;4998889;28;41317;-81
2023/09/06 04:28:26;;;;;;;2.73;2.10;;;;;;;14.79;70.91;99339.31;4999573;28;40281;-79
2023/09/06 04:30:56;;;;;;;2.40;1.90;;;;;;;14.76;70.68;99337.72;5015320;28;42685;-80
2023/09/06 04:33:27;;;;;;;2.03;1.70;;;;;;;14.75;70.84;99328.00;5012700;28;42852;-83
2023/09/06 04:36:00;;;;;;;3.00;2.33;;;;;;;14.75;70.60;99333.34;4998452;28;42418;-79
2023/09/06 04:38:31;;;;;;;3.87;2.37;;;;;;;14.62;70.89;99314.69;4999807;28;40730;-82
2023/09/06 04:41:01;;;;;;;2.40;1.90;;;;;;;14.74;71.23;99337.81;5014348;28;42014;-81
2023/09/06 04:43:34;;;;;;;2.37;2.17;;;;;;;14.73;71.15;99344.09;5000154;28;41882;-79
2023/09/06 04:46:03;;;;;;;2.73;2.30;;;;;;;14.74;71.93;99335.16;5016218;28;42235;-80
2023/09/06 04:48:34;;;;;;;3.10;2.27;;;;;;;14.72;72.05;99337.06;5013397;28;41022;-79
2023/09/06 04:51:02;;;;;;;2.27;2.03;;;;;;;14.78;72.12;99342.94;4998968;28;40632;-79
2023/09/06 04:53:33;;;;;;;2.60;2.40;;;;;;;14.79;72.08;99347.31;4998938;28;42714;-80
2023/09/06 04:56:04;;;;;;;2.20;2.00;;;;;;;14.80;72.13;99349.00;5015497;28;43200;-81
2023/09/06 04:58:39;;;;;;;2.67;2.33;;;;;;;14.83;71.93;99348.81;4999314;28;40854;-81
2023/09/06 05:01:07;;;;;;;2.40;2.17;;;;;;;14.85;71.66;99357.50;4999055;28;41580;-82
2023/09/06 05:03:35;;;;;;;3.33;1.73;;;;;;;14.84;71.91;99353.16;4999678;28;43002;-79
2023/09/06 05:06:04;;;;;;;2.27;2.07;;;;;;;14.85;71.81;99358.38;4998331;28;41297;-84
2023/09/06 05:08:34;;;;;;;3.10;2.30;;;;;;;14.86;71.66;99364.56;5014096;28;41007;-83
2023/09/06 05:11:08;;;;;;;2.60;1.80;;;;;;;14.86;71.46;99370.75;4998290;28;41591;-82
2023/09/06 05:13:38;;;;;;;2.47;1.90;;;;;;;14.85;71.55;99369.03;4998181;28;41492;-78
2023/09/06 05:16:07;;;;;;;1.97;1.77;;;;;;;14.88;71.43;99362.63;5014264;28;42455;-78
2023/09/06 05:18:35;;;;;;;2.20;1.70;;;;;;;14.88;71.32;99367.97;4997974;28;40016;-77
2023/09/06 05:21:05;;;;;;;2.33;1.90;;;;;;;14.85;71.36;99362.84;5014467;28;41483;-83
2023/09/06 05:23:36;;;;;;;2.27;1.80;;;;;;;14.90;71.30;99366.06;5029231;28;43580;-82
2023/09/06 05:26:04;;;;;;;2.33;1.90;;;;;;;14.90;70.80;99371.38;5014319;28;42323;-80
2023/09/06 05:28:37;;;;;;;2.80;1.83;;;;;;;14.86;70.87;99353.88;4998323;28;39989;-83
2023/09/06 05:31:06;;;;;;;1.97;1.77;;;;;;;14.92;71.06;99366.81;5013928;28;42011;-78
2023/09/06 05:33:40;;;;;;;3.00;2.00;;;;;;;14.98;70.72;99375.19;4998030;28;41949;-77
2023/09/06 05:36:09;;;;;;;2.00;1.90;;;;;;;15.02;71.03;99370.50;4997390;28;41151;-80
2023/09/06 05:38:38;;;;;;;3.00;2.07;;;;;;;15.08;70.85;99376.22;4998774;28;39854;-78
2023/09/06 05:41:06;;;;;;;1.90;1.70;;;;;;;15.16;71.05;99367.69;4998074;28;41643;-80
2023/09/06 05:43:38;;;;;;;2.97;2.33;;;;;;;15.29;71.47;99372.97;4998968;28;42854;-81
2023/09/06 05:46:06;;;;;;;3.63;2.27;;;;;;;15.42;71.67;99369.28;4998287;28;41069;-86
2023/09/06 05:48:33;;;;;;;2.90;2.50;;;;;;;15.55;71.57;99363.06;5002711;28;40968;-81
2023/09/06 05:51:01;;;;;;;3.60;2.40;;;;;;;15.72;71.74;99384.00;4996986;28;41192;-81
2023/09/06 05:53:30;;;;;;;2.53;2.33;;;;;;;15.85;71.45;99376.75;5014275;28;42802;-84
2023/09/06 05:56:00;;;;;;;3.27;2.70;;;;;;;15.93;72.50;99363.69;5014904;28;42639;-81
2023/09/06 05:58:32;;;;;;;2.73;2.50;;;;;;;16.11;72.28;99378.31;5015257;28;41695;-80
2023/09/06 06:00:59;;;;;;;3.57;2.70;;;;;;;16.28;71.72;99389.53;4997972;28;40619;-79
2023/09/06 06:03:27;;;;;;;3.20;2.67;;;;;;;16.44;71.48;99395.38;4997697;28;41879;-80
2023/09/06 06:05:55;;;;;;;2.57;2.27;;;;;;;16.66;71.08;99398.09;5014117;28;43139;-79
2023/09/06 06:08:22;;;;;;;2.47;2.27;;;;;;;16.96;69.94;99404.66;4996869;28;41411;-79
2023/09/06 06:10:50;;;;;;;3.63;3.00;;;;;;;17.26;69.06;99407.56;5031168;28;41429;-81
2023/09/06 06:13:20;;;;;;;2.93;2.10;;;;;;;17.41;68.83;99414.34;5013894;28;43528;-80
2023/09/06 06:15:48;;;;;;;2.70;2.50;;;;;;;17.49;68.38;99406.53;5030927;28;42373;-81
2023/09/06 06:18:17;;;;;;;4.53;2.80;;;;;;;17.47;68.46;99403.09;5013592;28;41449;-79
2023/09/06 06:20:45;;;;;;;3.40;2.43;;;;;;;17.48;68.83;99410.16;4996552;28;42366;-80
2023/09/06 06:23:12;;;;;;;3.97;3.10;;;;;;;17.51;69.11;99401.03;5012893;28;42878;-77
2023/09/06 06:25:40;;;;;;;2.40;2.20;;;;;;;17.58;69.01;99400.41;5012467;28;43315;-79
2023/09/06 06:28:08;;;;;;;3.07;2.67;;;;;;;17.73;68.72;99410.84;4996925;28;40114;-78
2023/09/06 06:30:37;;;;;;;2.80;2.50;;;;;;;17.84;68.98;99402.78;5013208;28;41703;-84
2023/09/06 06:33:05;;;;;;;3.20;2.90;;;;;;;17.96;69.72;99409.78;4997232;28;42034;-83
2023/09/06 06:35:32;;;;;;;4.03;2.70;;;;;;;18.08;69.38;99408.75;5012829;28;42375;-82
2023/09/06 06:38:01;;;;;;;3.93;3.00;;;;;;;18.20;69.21;99407.69;5032102;28;41922;-80
2023/09/06 06:40:29;;;;;;;4.23;2.70;;;;;;;18.25;68.85;99394.78;4997318;28;41446;-80
2023/09/06 06:42:57;;;;;;;4.17;2.93;;;;;;;18.46;68.98;99412.66;4998247;28;41638;-81
2023/09/06 06:45:24;;;;;;;5.10;3.30;;;;;;;18.38;68.28;99374.94;4997536;28;41386;-76
2023/09/06 06:47:53;;;;;;;3.50;3.10;;;;;;;18.64;67.58;99390.50;5013909;28;41129;-78
2023/09/06 06:50:21;;;;;;;3.70;2.67;;;;;;;18.91;67.98;99414.09;5013539;28;40626;-79
2023/09/06 06:52:49;;;;;;;3.27;2.60;;;;;;;19.03;67.96;99414.84;5031758;28;42897;-78
2023/09/06 06:55:16;;;;;;;2.77;2.47;;;;;;;19.18;67.59;99416.13;5013677;28;42207;-81
2023/09/06 06:57:44;;;;;;;5.20;3.60;;;;;;;19.35;67.24;99422.69;4998158;28;39969;-82
2023/09/06 07:00:17;;;;;;;3.03;2.53;;;;;;;19.54;66.71;99433.50;4998095;28;41904;-82
2023/09/06 07:02:46;;;;;;;2.83;2.63;;;;;;;19.77;66.29;99422.53;4998387;28;42757;-83
2023/09/06 07:05:15;;;;;;;3.43;3.13;;;;;;;19.97;65.90;99413.47;4997827;28;41382;-82
2023/09/06 07:07:43;;;;;;;3.30;3.00;;;;;;;20.34;65.36;99422.50;4996784;28;40542;-80
2023/09/06 07:10:11;;;;;;;3.40;2.97;;;;;;;20.64;64.33;99420.63;5030841;28;42349;-87
2023/09/06 07:12:38;;;;;;;3.80;3.00;;;;;;;20.84;63.93;99406.09;4996677;28;43151;-81
2023/09/06 07:15:07;;;;;;;2.90;2.70;;;;;;;21.12;63.94;99423.16;5012791;28;40830;-82
2023/09/06 07:17:35;;;;;;;4.33;3.20;;;;;;;21.30;63.73;99425.91;5013248;28;40879;-85
2023/09/06 07:20:04;;;;;;;3.17;2.30;;;;;;;21.40;63.03;99410.53;5030837;28;41815;-92
2023/09/06 07:22:34;;;;;;;4.07;3.30;;;;;;;21.72;63.23;99424.38;5012946;28;43027;-82
2023/09/06 07:25:04;;;;;;;3.63;2.90;;;;;;;21.99;63.13;99422.66;4996890;28;41034;-81
2023/09/06 07:27:31;;;;;;;3.33;2.93;;;;;;;22.31;61.10;99440.97;4996540;28;39932;-85
2023/09/06 07:29:59;;;;;;;4.67;2.70;;;;;;;22.60;59.87;99443.38;5030823;28;41526;-84
2023/09/06 07:32:26;;;;;;;4.63;3.20;;;;;;;22.97;58.52;99446.69;5013121;28;43209;-82
2023/09/06 07:34:53;;;;;;;3.60;2.93;;;;;;;23.22;56.65;99459.34;5013107;28;42356;-81
2023/09/06 07:37:21;;;;;;;4.40;2.77;;;;;;;23.34;58.19;99429.31;4996047;28;40228;-84
2023/09/06 07:39:51;;;;;;;3.33;3.03;;;;;;;23.80;57.48;99455.84;4997674;28;41718;-84
2023/09/06 07:42:19;;;;;;;3.57;3.00;;;;;;;24.15;54.33;99470.09;4997003;28;44095;-79
2023/09/06 07:44:46;;;;;;;2.50;2.27;;;;;;;24.39;54.39;99451.19;4996994;28;42313;-80
2023/09/06 07:47:14;;;;;;;5.43;3.07;;;;;;;24.82;54.25;99462.69;4996522;28;41283;-80
2023/09/06 07:49:41;;;;;;;3.53;2.80;;;;;;;25.16;52.81;99471.44;5031172;28;41789;-79
2023/09/06 07:52:08;;;;;;;3.70;2.97;;;;;;;25.77;51.82;99476.13;5012984;28;42673;-79
2023/09/06 07:54:36;;;;;;;3.67;2.93;;;;;;;26.77;49.11;99495.97;5031140;28;42144;-81
2023/09/06 07:57:05;;;;;;;4.20;3.30;;;;;;;28.30;46.87;99504.41;4996980;28;39979;-79
2023/09/06 07:59:33;;;;;;;3.17;2.97;;;;;;;29.40;42.96;99491.91;5012756;28;42700;-80
2023/09/06 08:02:00;;;;;;;3.17;2.97;;;;;;;29.76;42.08;99526.31;5012666;28;42886;-84
2023/09/06 08:04:28;;;;;;;3.57;2.80;;;;;;;29.42;41.74;99532.66;4996814;28;41402;-78
2023/09/06 08:06:58;;;;;;;3.13;2.87;;;;;;;29.08;41.71;99531.53;4994977;28;39615;-85
2023/09/06 08:09:26;;;;;;;3.30;3.00;;;;;;;29.33;42.79;99518.28;5029955;28;41914;-84
2023/09/06 08:11:53;;;;;;;3.93;2.90;;;;;;;29.74;42.13;99520.22;5012589;28;43605;-80
2023/09/06 08:14:22;;;;;;;3.30;3.00;;;;;;;30.38;40.21;99506.16;5012422;28;42493;-82
2023/09/06 08:16:50;;;;;;;3.10;2.80;;;;;;;30.47;39.59;99540.47;5012538;28;40862;-83
2023/09/06 08:19:17;;;;;;;3.80;2.77;;;;;;;30.02;41.65;99518.28;5011953;28;43220;-80
2023/09/06 08:21:44;;;;;;;3.60;2.80;;;;;;;29.85;42.41;99519.63;5012289;28;42860;-83
2023/09/06 08:24:12;;;;;;;3.00;2.70;;;;;;;29.96;41.77;99519.06;5012192;28;43333;-80
2023/09/06 08:26:40;;;;;;;3.47;3.17;;;;;;;30.23;41.23;99515.38;4998408;28;39808;-80
2023/09/06 08:29:08;;;;;;;3.53;3.00;;;;;;;30.85;39.81;99538.84;4998850;28;42249;-85
2023/09/06 08:31:37;;;;;;;3.07;2.53;;;;;;;31.36;38.57;99538.22;5015671;28;41613;-86
2023/09/06 08:34:04;;;;;;;3.80;3.20;;;;;;;31.77;37.36;99544.22;5015401;28;42296;-86
2023/09/06 08:36:32;;;;;;;3.07;2.70;;;;;;;31.88;38.18;99542.75;5033520;28;40968;-84
2023/09/06 08:39:00;;;;;;;3.47;3.17;;;;;;;32.16;36.40;99544.28;5016262;28;41898;-83
2023/09/06 08:41:28;;;;;;;4.50;2.90;;;;;;;32.65;35.88;99560.91;5015725;28;42813;-89
2023/09/06 08:43:56;;;;;;;3.00;2.80;;;;;;;33.12;34.50;99548.56;5016193;28;41936;-90
2023/09/06 08:46:30;;;;;;;3.65;2.97;;;;;;;33.61;34.50;99560.56;5016644;28;41940;-87
2023/09/06 08:49:03;;;;;;;2.88;2.67;;;;;;;34.06;33.08;99568.50;5015818;28;41790;-84
2023/09/06 08:51:32;;;;;;;3.25;3.03;;;;;;;34.07;32.60;99570.19;5015740;28;41689;-80
2023/09/06 08:54:00;;;;;;;3.38;3.08;;;;;;;34.21;32.56;99563.47;5033441;28;42618;-83
2023/09/06 08:56:28;;;;;;;4.72;3.28;;;;;;;34.87;32.11;99568.03;5015509;28;39672;-79
2023/09/06 08:58:56;;;;;;;3.28;2.95;;;;;;;36.04;30.61;99565.31;5015526;28;41662;-86
2023/09/06 09:01:23;;;;;;;2.70;2.50;;;;;;;37.59;28.32;99582.25;5016114;28;42468;-83
2023/09/06 09:03:51;;;;;;;3.25;2.55;;;;;;;38.77;26.88;99575.22;5033568;28;42280;-83
2023/09/06 09:06:20;;;;;;;2.50;2.30;;;;;;;40.33;24.24;99597.97;4997953;28;40667;-79
2023/09/06 09:08:48;;;;;;;2.70;2.47;;;;;;;41.94;22.96;99610.31;5031893;28;41992;-80
2023/09/06 09:11:18;;;;;;;2.60;2.40;;;;;;;43.69;20.67;99627.38;5032205;28;43754;-87
2023/09/06 09:13:46;;;;;;;2.90;2.70;;;;;;;44.76;20.25;99601.78;4998077;28;42322;-82
2023/09/06 09:16:17;;;;;;;2.70;2.50;;;;;;;44.99;19.49;99605.66;5032652;28;20236;-82
2023/09/06 09:18:47;;;;;;;2.90;2.70;;;;;;;44.47;21.15;99601.09;4997677;28;40402;-88
2023/09/06 09:21:14;;;;;;;2.72;2.47;;;;;;;43.84;21.46;99598.50;5031697;28;45227;-81
2023/09/06 09:23:46;;;;;;;2.97;2.08;;;;;;;42.69;21.50;99591.63;5032002;28;42360;-84
2023/09/06 09:26:14;;;;;;;2.55;2.35;;;;;;;41.51;21.80;99568.13;4997649;28;39992;-81
2023/09/06 09:28:42;;;;;;;2.70;2.50;;;;;;;40.78;23.42;99573.13;4997533;28;41527;-80
2023/09/06 09:31:13;;;;;;;3.72;2.60;;;;;;;40.28;21.59;99572.94;5013968;28;43143;-82
2023/09/06 09:33:43;;;;;;;2.75;2.50;;;;;;;40.39;23.34;99574.69;5013740;28;41596;-85
2023/09/06 09:36:11;;;;;;;2.63;2.42;;;;;;;39.84;23.45;99560.25;5014050;28;41951;-81
2023/09/06 09:38:41;;;;;;;2.75;2.55;;;;;;;39.42;23.50;99565.84;5015286;28;42934;-82
2023/09/06 09:41:10;;;;;;;2.88;2.50;;;;;;;38.89;23.57;99566.75;5014879;28;43389;-82
2023/09/06 09:43:39;;;;;;;2.42;2.22;;;;;;;38.45;24.56;99549.41;5015156;28;42400;-81
2023/09/06 09:46:09;;;;;;;2.65;2.45;;;;;;;38.15;23.89;99565.66;5032757;28;41138;-84
2023/09/06 09:48:38;;;;;;;2.70;2.50;;;;;;;37.57;24.55;99558.75;4998546;28;41026;-84
2023/09/06 09:51:15;;;;;;;2.60;2.40;;;;;;;36.95;24.33;99559.69;5014647;28;42715;-85
2023/09/06 09:53:44;;;;;;;2.53;2.33;;;;;;;36.49;25.06;99555.22;5032545;28;42030;-81
2023/09/06 09:56:14;;;;;;;2.50;2.30;;;;;;;36.85;26.39;99544.84;5015803;28;42155;-82
2023/09/06 09:58:42;;;;;;;3.25;2.70;;;;;;;36.74;25.18;99526.44;5016754;28;41342;-80
2023/09/06 10:01:10;;;;;;;4.38;2.88;;;;;;;36.64;26.11;99524.31;4999399;28;42295;-84
2023/09/06 10:03:42;;;;;;;2.63;2.42;;;;;;;36.82;26.92;99523.28;5016978;28;43710;-80
2023/09/06 10:06:11;;;;;;;2.70;2.50;;;;;;;36.76;26.51;99530.63;4998928;28;40234;-81
2023/09/06 10:08:40;;;;;;;2.60;2.38;;;;;;;36.58;26.96;99506.84;5014279;28;41955;-85
2023/09/06 10:11:08;;;;;;;2.97;2.42;;;;;;;36.60;27.06;99488.06;4998629;28;41915;-85
2023/09/06 10:13:40;;;;;;;2.70;2.50;;;;;;;36.21;27.44;99511.06;5013077;28;42811;-82
2023/09/06 10:16:08;;;;;;;3.47;3.17;;;;;;;35.57;26.84;99505.59;5031508;28;41325;-84
2023/09/06 10:18:37;;;;;;;2.40;2.20;;;;;;;34.86;28.31;99475.56;5013054;28;40815;-81
2023/09/06 10:21:06;;;;;;;3.23;2.93;;;;;;;34.74;29.84;99489.28;5031532;28;42628;-79
2023/09/06 10:23:41;;;;;;;3.23;2.90;;;;;;;34.58;30.47;99468.78;5013059;28;42671;-82
2023/09/06 10:26:08;;;;;;;4.50;3.13;;;;;;;34.79;29.48;99492.16;4997187;28;40013;-81
2023/09/06 10:28:38;;;;;;;4.03;3.00;;;;;;;34.91;29.78;99472.91;5030848;28;42748;-82
2023/09/06 10:31:11;;;;;;;2.60;2.40;;;;;;;35.71;29.59;99451.06;5031532;28;43703;-85
2023/09/06 10:33:57;;;;;;;2.93;2.70;;;;;;;36.79;28.32;99497.00;4996955;28;42399;-82
2023/09/06 10:36:29;;;;;;;4.77;2.53;;;;;;;36.82;28.22;99490.16;5010911;28;41718;-80
2023/09/06 10:39:18;;;;;;;2.50;2.30;;;;;;;36.84;27.56;99499.03;5014018;28;42956;-83
2023/09/06 10:42:27;;;;;;;2.38;2.17;;;;;;;37.33;25.66;99514.75;4997781;28;41889;-80
2023/09/06 10:45:17;;;;;;;2.78;2.38;;;;;;;38.61;24.19;99508.88;5012733;28;43385;-80
2023/09/06 10:47:44;;;;;;;3.35;2.58;;;;;;;39.41;24.14;99503.19;4997327;28;40138;-81
2023/09/06 10:50:16;;;;;;;2.83;2.08;;;;;;;39.56;23.37;99509.91;5032067;28;42471;-84
2023/09/06 10:52:46;;;;;;;2.50;2.25;;;;;;;39.37;24.00;99510.31;5012621;28;43845;-82
2023/09/06 10:55:17;;;;;;;2.60;2.40;;;;;;;39.30;23.24;99518.06;5014428;28;42365;-82
2023/09/06 10:58:08;;;;;;;2.67;2.40;;;;;;;39.12;24.32;99510.16;5013793;28;40150;-81
2023/09/06 11:00:42;;;;;;;2.33;2.13;;;;;;;38.90;25.08;99495.56;5001855;28;42454;-87
2023/09/06 11:03:13;;;;;;;2.60;2.40;;;;;;;38.40;24.42;99488.44;4997803;28;41816;-86
2023/09/06 11:05:42;;;;;;;2.90;2.58;;;;;;;38.25;25.19;99496.59;4997363;28;42680;-77
2023/09/06 11:08:22;;;;;;;3.00;2.53;;;;;;;38.17;25.18;99492.34;5012252;28;41225;-80
2023/09/06 11:10:50;;;;;;;2.38;2.17;;;;;;;38.23;26.25;99479.41;4988922;28;40555;-77
2023/09/06 11:13:19;;;;;;;2.30;2.10;;;;;;;38.14;24.61;99453.31;4976210;28;43547;-77
2023/09/06 11:15:50;;;;;;;2.25;2.05;;;;;;;38.37;25.93;99477.88;4986313;28;40907;-79
2023/09/06 11:18:18;;;;;;;2.40;2.20;;;;;;;38.56;25.59;99478.38;5030372;28;41021;-89
2023/09/06 11:20:49;;;;;;;2.47;2.28;;;;;;;39.05;26.19;99454.97;4996005;28;40901;-84
2023/09/06 11:23:17;;;;;;;3.40;2.65;;;;;;;39.98;22.82;99496.78;4996375;28;42389;-80
2023/09/06 11:25:46;;;;;;;2.47;2.28;;;;;;;41.31;23.05;99483.88;5012067;28;41490;-81
2023/09/06 11:28:18;;;;;;;2.67;2.47;;;;;;;42.42;21.26;99493.75;5012980;28;40079;-81
2023/09/06 11:30:47;;;;;;;2.78;2.47;;;;;;;42.56;20.40;99500.31;5030058;28;42619;-80
2023/09/06 11:33:17;;;;;;;3.13;2.20;;;;;;;42.29;20.25;99504.38;4996443;28;43416;-85
2023/09/06 11:35:52;;;;;;;2.58;2.38;;;;;;;42.51;20.70;99498.44;5012361;28;41652;-81
2023/09/06 11:38:25;;;;;;;2.15;2.05;;;;;;;43.53;19.44;99512.28;4997419;28;41018;-82
2023/09/06 11:40:53;;;;;;;2.38;2.10;;;;;;;43.95;18.26;99519.06;5013096;28;42041;-80
2023/09/06 11:43:23;;;;;;;2.53;2.33;;;;;;;44.21;18.29;99495.28;4997098;28;41651;-81
2023/09/06 11:45:53;;;;;;;2.50;2.30;;;;;;;45.26;17.68;99526.59;5012718;28;42580;-85